Dakota Dunes, South Dakota
Current Conditions -  °F | °C
As of 10:52 AM on Sunday 23 Nov 2014 (Local Time) from KSUX Reporting Station
Overcast Overcast  
Wind Chill:   Ceiling: 1900
Heat Index:   Visibility: 10mi
Dew Point:   Wind: 22mph
Humidity: 76%   Direction: 320°NW
Pressure: 29.54"   Gusts: 31mph
Location:  42.532°N, 96.5446°W
Report Text: KSUX 231652Z 32019G27KT 10SM BKN019 OVC038 07/03 A2954 RMK AO2 PK WND 32027/1648 SLP005 T00720033
Loading
Personal Weather Stations






























Interactive Weather Map New forecast layout! Learn more

10-Day Weather Forecast

Advertisements
Track Severe Weather on mobile